ADDS METAR Data INFO
IDs: Format: Raw Decoded Include TAF

Data at: 1945 UTC 17 Feb 2018

KMYV 171853Z AUTO VRB04KT 10SM CLR 14/05 A3019 RMK AO2 SLP225 T01390050
KMYV 171753Z AUTO 10003KT 10SM CLR 12/04 A3019 RMK AO2 SLP227 T01170039 10117 20006 51007
KMYV 171653Z AUTO 10003KT 10SM CLR 10/04 A3019 RMK AO2 SLP226 T01000039
KMYV 171553Z AUTO 00000KT 10SM CLR 04/03 A3018 RMK AO2 SLP225 T00440028
KMYV 171453Z AUTO 31003KT 10SM CLR 01/M01 A3017 RMK AO2 SLP221 T00111011 55003
KMYV 171353Z AUTO 00000KT 10SM CLR 02/M01 A3016 RMK AO2 SLP216 T00221006
KMYV 171253Z AUTO 00000KT 10SM CLR 02/M01 A3017 RMK AO2 SLP221 T00171006
KMYV 171153Z AUTO 33005KT 10SM CLR 02/01 A3018 RMK AO2 SLP223 T00220006 10067 20017 56003
KMYV 171053Z AUTO 00000KT 10SM CLR 03/01 A3018 RMK AO2 SLP223 T00280011
KMYV 170953Z AUTO 00000KT 10SM CLR 04/02 A3019 RMK AO2 SLP226 T00390017
KMYV 170853Z AUTO 10003KT 10SM CLR 06/03 A3019 RMK AO2 SLP226 T00560028 51006
KMYV 170753Z AUTO 12004KT 10SM CLR 05/03 A3018 RMK AO2 SLP224 T00500028 401831011
KMYV 170653Z AUTO 09004KT 9SM CLR 05/03 A3018 RMK AO2 SLP223 T00500028
KMYV 170553Z AUTO 00000KT 10SM CLR 06/04 A3017 RMK AO2 SLP220 T00610039 10178 20061 51009
KMYV 170453Z AUTO 00000KT 10SM CLR 09/03 A3016 RMK AO2 SLP217 T00940033
KMYV 170353Z AUTO 00000KT 10SM CLR 09/02 A3016 RMK AO2 SLP216 T00940017
KMYV 170253Z AUTO 00000KT 10SM CLR 11/02 A3014 RMK AO2 SLP212 T01060017 56006
KMYV 170153Z AUTO 00000KT 10SM CLR 14/00 A3014 RMK AO2 SLP212 T01440000
KMYV 170053Z AUTO 33007KT 10SM CLR 17/00 A3015 RMK AO2 SLP213 T01720000
KMYV 162353Z AUTO 32008KT 10SM CLR 18/00 A3016 RMK AO2 SLP217 T01780000 10183 20117 56026
KMYV 162253Z AUTO 31006KT 10SM CLR 17/01 A3017 RMK AO2 SLP220 T01720006
KMYV 162153Z AUTO 30005KT 10SM CLR 17/M01 A3019 RMK AO2 SLP227 T01721006
KMYV 162053Z AUTO VRB04KT 10SM CLR 17/00 A3024 RMK AO2 SLP242 T01670000 58021
KMYV 161953Z AUTO 00000KT 10SM CLR 15/M01 A3027 RMK AO2 SLP254 T01501006
KMYV 161853Z AUTO 35004KT 10SM CLR 13/M01 A3030 RMK AO2 SLP262 T01331011
KMYV 161753Z AUTO 35003KT 10SM CLR 12/M01 A3030 RMK AO2 SLP264 T01171006 10117 21011 51007
KMYV 161653Z AUTO 35004KT 10SM CLR 09/01 A3030 RMK AO2 SLP263 T00890011
KMYV 161553Z AUTO 00000KT 7SM CLR 03/01 A3029 RMK AO2 SLP263 T00330006
KMYV 161453Z AUTO 32003KT 10SM CLR 01/M02 A3028 RMK AO2 SLP258 T00061022 52009
KMYV 161353Z AUTO 00000KT 10SM CLR 00/M02 A3027 RMK AO2 SLP256 T00001022
KMYV 161253Z AUTO 00000KT 10SM CLR 02/M01 A3026 RMK AO2 SLP249 T00171011
KMYV 161153Z AUTO 00000KT 10SM CLR 02/M01 A3025 RMK AO2 SLP247 T00171011 10083 20000 58012
KMYV 161053Z AUTO 00000KT 10SM CLR 02/M01 A3027 RMK AO2 SLP253 T00171011
KMYV 160953Z AUTO 00000KT 10SM CLR 02/M01 A3028 RMK AO2 SLP257 T00171011
KMYV 160853Z AUTO 00000KT 10SM CLR 02/M01 A3029 RMK AO2 SLP259 T00221011 51006
KMYV 160753Z AUTO 08003KT 10SM CLR 05/M01 A3029 RMK AO2 SLP259 T00501006 401720017